Preview of NWS' New Version of Forecast
This preview is not operational and should not be used for support decisions.

Terminal Aerodrome Forecast (TAF)

Issued by National Weather Service (NWS)

                            
000
FTUS46 KSEW 231120
TAFBLI
TAF
KBLI 231120Z 2312/2412 17003KT P6SM SCT250
     FM231500 17006KT P6SM BKN100 OVC200
     FM240900 18005KT P6SM BKN060 BKN100=